Time;durP1;ratioP1;P1;durP2;ratioP2;P2;SDS_P1;SDS_P2;PMS_P1;PMS_P2;Temp;Humidity;BMP_temperature;BMP_pressure;BME280_temperature;BME280_humidity;BME280_pressure;Samples;Min_cycle;Max_cycle;Signal;HPM_P1;HPM_P2
2020/12/18 00:00:32;;;;;;;13.80;7.60;;;7.00;82.00;;;;;;5038820;28;20446;-74
2020/12/18 00:02:57;;;;;;;18.60;8.10;;;7.00;81.60;;;;;;5038079;28;20374;-77
2020/12/18 00:05:23;;;;;;;12.73;7.60;;;6.90;82.20;;;;;;5038801;28;20383;-75
2020/12/18 00:07:48;;;;;;;15.77;7.80;;;6.80;83.40;;;;;;5038280;28;20887;-75
2020/12/18 00:10:14;;;;;;;15.37;7.93;;;6.70;84.50;;;;;;5039215;28;20379;-74
2020/12/18 00:12:39;;;;;;;11.70;7.30;;;6.70;84.90;;;;;;5037849;28;20410;-76
2020/12/18 00:15:05;;;;;;;17.60;8.40;;;6.70;85.40;;;;;;5038260;28;20403;-76
2020/12/18 00:17:31;;;;;;;15.17;8.30;;;6.60;85.90;;;;;;5039435;28;20379;-76
2020/12/18 00:19:56;;;;;;;14.50;7.67;;;6.60;85.40;;;;;;5053739;28;20407;-74
2020/12/18 00:22:22;;;;;;;16.30;8.23;;;6.50;86.30;;;;;;5055254;28;20449;-76
2020/12/18 00:24:48;;;;;;;17.53;9.00;;;6.50;88.10;;;;;;5039242;28;20386;-75
2020/12/18 00:27:13;;;;;;;15.68;8.43;;;6.40;87.90;;;;;;5020660;28;20474;-76
2020/12/18 00:29:39;;;;;;;14.02;8.10;;;6.40;88.30;;;;;;5038394;28;20481;-74
2020/12/18 00:32:05;;;;;;;20.50;8.25;;;6.40;89.20;;;;;;5039334;28;20430;-75
2020/12/18 00:34:30;;;;;;;22.35;8.40;;;6.30;88.90;;;;;;5038948;28;20796;-76
2020/12/18 00:36:56;;;;;;;17.60;9.10;;;6.30;89.30;;;;;;5038066;28;20578;-75
2020/12/18 00:39:22;;;;;;;17.40;7.93;;;6.30;89.90;;;;;;5038637;28;20395;-75
2020/12/18 00:41:53;;;;;;;15.73;8.90;;;6.30;89.90;;;;;;5057642;28;20449;-75
2020/12/18 00:44:20;;;;;;;17.30;8.25;;;6.30;89.50;;;;;;5059611;28;20819;-76
2020/12/18 00:46:46;;;;;;;21.00;8.10;;;6.30;90.40;;;;;;5059393;28;20413;-74
2020/12/18 00:49:12;;;;;;;22.27;8.40;;;6.30;89.60;;;;;;5059646;28;20443;-75
2020/12/18 00:51:37;;;;;;;18.97;9.80;;;6.30;90.40;;;;;;5059776;28;20381;-74
2020/12/18 00:54:03;;;;;;;16.43;8.30;;;6.20;90.50;;;;;;5056790;28;20405;-75
2020/12/18 00:56:28;;;;;;;14.03;8.10;;;6.20;90.80;;;;;;5054650;28;20392;-74
2020/12/18 00:58:54;;;;;;;14.27;8.90;;;6.20;90.90;;;;;;5054313;28;20377;-77
2020/12/18 01:01:19;;;;;;;15.30;8.93;;;6.30;91.10;;;;;;5054067;28;20404;-74
2020/12/18 01:03:45;;;;;;;17.67;8.33;;;6.20;91.20;;;;;;5052794;28;20588;-74
2020/12/18 01:06:14;;;;;;;15.37;8.00;;;6.20;91.50;;;;;;5052759;28;20891;-75
2020/12/18 01:08:39;;;;;;;17.88;8.48;;;6.20;92.70;;;;;;5034633;28;20389;-72
2020/12/18 01:11:06;;;;;;;18.50;7.90;;;6.20;91.40;;;;;;5052860;28;20403;-74
2020/12/18 01:13:32;;;;;;;15.32;8.65;;;6.20;91.70;;;;;;5052350;28;20381;-75
2020/12/18 01:15:58;;;;;;;16.33;8.68;;;6.20;91.10;;;;;;5052717;28;20389;-73
2020/12/18 01:18:24;;;;;;;14.05;7.90;;;6.20;92.00;;;;;;5052316;28;20385;-73
2020/12/18 01:20:50;;;;;;;21.57;9.30;;;6.20;91.10;;;;;;5052819;28;20460;-74
2020/12/18 01:23:16;;;;;;;17.60;8.50;;;6.20;91.60;;;;;;5040983;28;20380;-74
2020/12/18 01:25:42;;;;;;;18.33;9.40;;;6.20;92.10;;;;;;5032357;28;20393;-73
2020/12/18 01:28:08;;;;;;;13.13;7.90;;;6.20;91.70;;;;;;5032189;28;20387;-74
2020/12/18 01:30:33;;;;;;;17.47;8.50;;;6.20;92.30;;;;;;5032385;28;20390;-74
2020/12/18 01:32:59;;;;;;;14.50;8.30;;;6.20;91.50;;;;;;5032143;28;20400;-73
2020/12/18 01:35:24;;;;;;;19.97;9.00;;;6.10;92.70;;;;;;5032301;28;20410;-73
2020/12/18 01:37:50;;;;;;;16.17;8.47;;;6.10;93.00;;;;;;5014312;28;20726;-74
2020/12/18 01:40:15;;;;;;;19.30;9.10;;;6.10;92.80;;;;;;5038039;28;20392;-75
2020/12/18 01:42:41;;;;;;;15.47;8.63;;;6.10;94.00;;;;;;5052260;28;20377;-74
2020/12/18 01:45:06;;;;;;;14.73;9.13;;;6.20;93.40;;;;;;5051972;28;20397;-73
2020/12/18 01:47:32;;;;;;;14.13;8.60;;;6.10;92.50;;;;;;5051665;28;20738;-74
2020/12/18 01:49:58;;;;;;;15.03;8.70;;;6.20;92.40;;;;;;5034093;28;20429;-74
2020/12/18 01:52:24;;;;;;;16.48;9.55;;;6.20;92.00;;;;;;5051663;28;20753;-73
2020/12/18 01:54:55;;;;;;;21.88;9.32;;;6.10;92.80;;;;;;5051836;28;20763;-72
2020/12/18 01:57:22;;;;;;;18.38;8.93;;;6.10;93.10;;;;;;5033707;28;20389;-72
2020/12/18 01:59:48;;;;;;;19.98;8.70;;;6.10;93.20;;;;;;5051885;28;20386;-75
2020/12/18 02:02:16;;;;;;;19.88;9.95;;;6.20;92.90;;;;;;5051760;28;20417;-73
2020/12/18 02:04:43;;;;;;;19.03;9.07;;;6.20;92.10;;;;;;5056067;28;20450;-74
2020/12/18 02:07:20;;;;;;;24.55;9.98;;;6.10;92.30;;;;;;5057305;28;20392;-76
2020/12/18 02:09:45;;;;;;;27.13;9.85;;;6.00;92.30;;;;;;5058901;28;20397;-74
2020/12/18 02:12:13;;;;;;;21.67;9.43;;;6.00;93.00;;;;;;5058440;28;20405;-75
2020/12/18 02:14:40;;;;;;;20.35;9.00;;;6.00;94.00;;;;;;5040376;28;20479;-75
2020/12/18 02:17:06;;;;;;;23.90;8.85;;;6.10;93.50;;;;;;5058664;28;20477;-75
2020/12/18 02:19:34;;;;;;;21.13;10.27;;;6.10;92.30;;;;;;5057580;28;20417;-76
2020/12/18 02:22:11;;;;;;;21.60;9.40;;;6.00;92.70;;;;;;5055978;28;20755;-76
2020/12/18 02:24:40;;;;;;;19.27;9.00;;;6.00;93.10;;;;;;5036823;28;20392;-75
2020/12/18 02:27:05;;;;;;;16.08;9.30;;;6.00;93.30;;;;;;5035716;28;20391;-76
2020/12/18 02:29:31;;;;;;;21.67;9.53;;;6.00;94.10;;;;;;5035348;28;20401;-75
2020/12/18 02:31:56;;;;;;;18.27;9.20;;;5.90;94.10;;;;;;5034469;28;20390;-74
2020/12/18 02:34:26;;;;;;;18.58;9.27;;;5.90;95.30;;;;;;5034746;28;20403;-73
2020/12/18 02:36:51;;;;;;;17.80;9.20;;;5.90;94.40;;;;;;5036197;28;20387;-74
2020/12/18 02:39:17;;;;;;;17.55;9.80;;;5.90;95.00;;;;;;5036202;28;20379;-76
2020/12/18 02:41:42;;;;;;;16.02;9.65;;;5.90;95.10;;;;;;5051615;28;20800;-75
2020/12/18 02:44:08;;;;;;;19.27;9.63;;;5.90;95.00;;;;;;5054231;28;20401;-73
2020/12/18 02:46:34;;;;;;;21.10;9.60;;;5.90;95.30;;;;;;5053899;28;20444;-75
2020/12/18 02:49:00;;;;;;;18.33;9.23;;;5.80;94.80;;;;;;5035217;28;20736;-76
2020/12/18 02:51:25;;;;;;;17.70;9.30;;;5.90;95.90;;;;;;5056757;28;20385;-77
2020/12/18 02:53:51;;;;;;;13.88;9.13;;;5.90;95.10;;;;;;5054376;28;20496;-73
2020/12/18 02:56:24;;;;;;;14.30;8.93;;;5.90;95.30;;;;;;5057394;28;20386;-75
2020/12/18 02:58:50;;;;;;;23.88;9.50;;;5.80;94.90;;;;;;5054347;28;20381;-75
2020/12/18 03:01:15;;;;;;;14.90;8.67;;;5.80;95.70;;;;;;5054036;28;20407;-75
2020/12/18 03:03:41;;;;;;;13.80;8.20;;;5.80;95.50;;;;;;5054191;28;20388;-74
2020/12/18 03:06:06;;;;;;;15.97;8.33;;;5.80;95.90;;;;;;5058875;28;20381;-74
2020/12/18 03:08:32;;;;;;;16.63;8.50;;;5.80;96.20;;;;;;5057124;28;20378;-75
2020/12/18 03:10:57;;;;;;;18.37;8.43;;;5.80;96.00;;;;;;5057248;28;20381;-76
2020/12/18 03:13:23;;;;;;;20.30;8.07;;;5.90;96.20;;;;;;5038528;28;20381;-76
2020/12/18 03:15:48;;;;;;;17.13;8.40;;;5.90;95.90;;;;;;5057339;28;20467;-76
2020/12/18 03:18:14;;;;;;;22.17;8.57;;;5.90;95.60;;;;;;5055737;28;20408;-75
2020/12/18 03:20:40;;;;;;;14.23;7.57;;;5.90;96.10;;;;;;5056224;28;20500;-74
2020/12/18 03:23:05;;;;;;;12.07;7.40;;;5.90;95.70;;;;;;5045646;28;20517;-74
2020/12/18 03:25:31;;;;;;;15.40;7.67;;;5.90;95.40;;;;;;5035208;28;20490;-75
2020/12/18 03:27:56;;;;;;;18.33;8.20;;;6.00;95.60;;;;;;5036729;28;20396;-74
2020/12/18 03:30:22;;;;;;;17.13;7.50;;;5.90;95.30;;;;;;5036987;28;20410;-75
2020/12/18 03:32:47;;;;;;;16.57;7.67;;;5.90;95.40;;;;;;5036976;28;20391;-74
2020/12/18 03:35:13;;;;;;;14.77;7.20;;;5.90;95.50;;;;;;5034942;28;20399;-74
2020/12/18 03:37:39;;;;;;;13.32;7.47;;;5.90;95.60;;;;;;5034475;28;20383;-75
2020/12/18 03:40:05;;;;;;;12.55;7.63;;;5.90;95.20;;;;;;5038659;28;20385;-74
2020/12/18 03:42:30;;;;;;;14.93;6.97;;;5.90;95.20;;;;;;5052658;28;20405;-74
2020/12/18 03:44:56;;;;;;;15.95;7.38;;;5.90;95.70;;;;;;5052869;28;20400;-74
2020/12/18 03:47:21;;;;;;;15.85;8.00;;;5.90;96.10;;;;;;5052588;28;20718;-74
2020/12/18 03:49:47;;;;;;;16.27;7.70;;;5.90;95.80;;;;;;5054009;28;20390;-74
2020/12/18 03:52:12;;;;;;;11.65;7.40;;;5.90;95.80;;;;;;5053343;28;20385;-74
2020/12/18 03:54:38;;;;;;;19.47;7.43;;;6.00;96.80;;;;;;5053634;28;20487;-74
2020/12/18 03:57:03;;;;;;;15.60;7.70;;;6.00;95.90;;;;;;5053121;28;20381;-75
2020/12/18 03:59:29;;;;;;;17.57;8.00;;;5.90;95.60;;;;;;5052343;28;20407;-74
2020/12/18 04:01:54;;;;;;;16.23;8.17;;;5.90;96.10;;;;;;5052739;28;20385;-75
2020/12/18 04:04:22;;;;;;;14.90;7.80;;;6.00;96.30;;;;;;5051710;28;20386;-74
2020/12/18 04:06:48;;;;;;;14.57;7.88;;;6.00;96.00;;;;;;5050051;28;20472;-73
2020/12/18 04:09:14;;;;;;;16.13;7.70;;;6.00;96.20;;;;;;5049922;28;20457;-73
2020/12/18 04:11:41;;;;;;;16.10;8.30;;;6.00;95.60;;;;;;5050093;28;20385;-73
2020/12/18 04:14:07;;;;;;;13.25;8.55;;;6.00;95.30;;;;;;5049874;28;20401;-74
2020/12/18 04:16:33;;;;;;;14.30;7.78;;;5.90;95.80;;;;;;5052207;28;20423;-73
2020/12/18 04:18:59;;;;;;;17.80;8.38;;;5.90;96.10;;;;;;5053533;28;20417;-73
2020/12/18 04:21:24;;;;;;;17.05;8.50;;;5.90;96.20;;;;;;5053655;28;20389;-73
2020/12/18 04:23:50;;;;;;;16.23;8.32;;;5.80;96.80;;;;;;5038191;28;20416;-75
2020/12/18 04:26:15;;;;;;;22.40;8.68;;;5.90;97.20;;;;;;5015819;28;20419;-74
2020/12/18 04:28:41;;;;;;;13.68;8.15;;;5.90;96.90;;;;;;5033344;28;20453;-73
2020/12/18 04:31:06;;;;;;;18.20;8.60;;;5.90;97.10;;;;;;5033517;28;20402;-74
2020/12/18 04:33:32;;;;;;;16.30;8.38;;;5.90;96.70;;;;;;5033468;28;20393;-74
2020/12/18 04:35:57;;;;;;;16.25;8.90;;;5.90;96.80;;;;;;5033589;28;20468;-74
2020/12/18 04:38:23;;;;;;;18.42;8.80;;;5.90;96.80;;;;;;5033021;28;20738;-74
2020/12/18 04:40:49;;;;;;;17.65;8.02;;;5.90;97.30;;;;;;5044332;28;21029;-75
2020/12/18 04:43:15;;;;;;;18.30;8.57;;;6.00;96.70;;;;;;5056219;28;20393;-75
2020/12/18 04:45:41;;;;;;;15.73;8.75;;;5.90;96.30;;;;;;5060740;28;20396;-75
2020/12/18 04:48:08;;;;;;;15.07;8.10;;;5.90;96.70;;;;;;5060263;28;20480;-75
2020/12/18 04:50:35;;;;;;;15.70;8.15;;;6.00;96.70;;;;;;5058589;28;20420;-75
2020/12/18 04:53:01;;;;;;;13.63;7.85;;;5.90;96.60;;;;;;5053661;28;20392;-76
2020/12/18 04:55:28;;;;;;;17.00;8.52;;;5.90;96.70;;;;;;5056134;28;20416;-75
2020/12/18 04:57:56;;;;;;;20.93;8.27;;;5.90;97.50;;;;;;5056318;28;20382;-75
2020/12/18 05:00:21;;;;;;;15.40;7.78;;;5.90;97.10;;;;;;5056584;28;20400;-74
2020/12/18 05:02:47;;;;;;;17.50;8.20;;;6.00;96.60;;;;;;5055580;28;20377;-75
2020/12/18 05:05:13;;;;;;;13.38;7.50;;;5.90;95.90;;;;;;5055680;28;20480;-75
2020/12/18 05:07:39;;;;;;;13.03;7.50;;;5.90;96.30;;;;;;5054817;28;20468;-75
2020/12/18 05:10:08;;;;;;;16.00;7.67;;;5.90;96.80;;;;;;5055694;28;20929;-74
2020/12/18 05:12:35;;;;;;;11.30;7.43;;;5.90;96.70;;;;;;5055824;28;20390;-74
2020/12/18 05:15:02;;;;;;;13.95;7.30;;;5.90;96.50;;;;;;5055027;28;20803;-74
2020/12/18 05:17:28;;;;;;;13.30;7.50;;;6.00;96.00;;;;;;5054238;28;20413;-75
2020/12/18 05:19:55;;;;;;;14.38;7.20;;;5.90;96.30;;;;;;5054059;28;20424;-74
2020/12/18 05:22:23;;;;;;;15.07;6.50;;;5.90;96.60;;;;;;5050469;28;20467;-72
2020/12/18 05:24:50;;;;;;;13.10;7.50;;;6.00;96.60;;;;;;5033884;28;20824;-74
2020/12/18 05:27:16;;;;;;;14.73;7.40;;;6.00;96.30;;;;;;5032680;28;20928;-74
2020/12/18 05:29:42;;;;;;;12.80;6.72;;;6.00;96.50;;;;;;5033779;28;20391;-75
2020/12/18 05:32:10;;;;;;;18.73;7.13;;;6.00;96.60;;;;;;5034138;28;20416;-75
2020/12/18 05:34:39;;;;;;;14.20;7.53;;;6.00;96.60;;;;;;5033964;28;20407;-78
2020/12/18 05:37:04;;;;;;;15.93;5.78;;;6.00;95.80;;;;;;5032662;28;20395;-74
2020/12/18 05:39:34;;;;;;;9.07;5.90;;;6.00;96.00;;;;;;5032518;28;20386;-75
2020/12/18 05:42:01;;;;;;;12.48;6.38;;;6.00;96.00;;;;;;5033343;28;20398;-73
2020/12/18 05:44:28;;;;;;;14.63;6.82;;;6.10;96.10;;;;;;5032737;28;20410;-75
2020/12/18 05:47:20;;;;;;;9.98;6.00;;;6.10;95.80;;;;;;5035341;28;20403;-73
2020/12/18 05:49:45;;;;;;;10.55;6.72;;;6.30;94.10;;;;;;5032645;28;20399;-73
2020/12/18 05:52:19;;;;;;;13.90;6.47;;;6.30;92.80;;;;;;5036597;28;20422;-73
2020/12/18 05:54:46;;;;;;;11.57;6.00;;;6.20;93.00;;;;;;5036640;28;20414;-74
2020/12/18 05:57:14;;;;;;;12.90;6.53;;;6.20;94.10;;;;;;5036663;28;20394;-74
2020/12/18 05:59:44;;;;;;;12.10;6.80;;;6.10;93.80;;;;;;5037036;28;20417;-74
2020/12/18 06:02:13;;;;;;;8.52;5.50;;;6.20;93.60;;;;;;5037146;28;20375;-74
2020/12/18 06:04:39;;;;;;;10.60;5.90;;;6.10;94.20;;;;;;5036187;28;20426;-73
2020/12/18 06:07:06;;;;;;;12.77;6.10;;;6.20;93.20;;;;;;5036668;28;20398;-74
2020/12/18 06:09:35;;;;;;;13.55;6.00;;;6.10;94.00;;;;;;5037054;28;20383;-73
2020/12/18 06:12:06;;;;;;;16.80;6.10;;;6.20;93.80;;;;;;5036099;28;20387;-73
2020/12/18 06:14:32;;;;;;;12.40;6.40;;;6.20;93.60;;;;;;5031199;28;20450;-74
2020/12/18 06:17:05;;;;;;;12.30;6.20;;;6.20;94.10;;;;;;5031243;28;20438;-74
2020/12/18 06:19:35;;;;;;;15.07;6.70;;;6.20;93.70;;;;;;5042080;28;20440;-74
2020/12/18 06:22:02;;;;;;;12.85;6.20;;;6.20;93.90;;;;;;5050211;28;20833;-75
2020/12/18 06:24:27;;;;;;;16.15;6.10;;;6.20;93.20;;;;;;5030952;28;20756;-75
2020/12/18 06:26:59;;;;;;;11.60;6.10;;;6.20;93.10;;;;;;5031026;28;20387;-74
2020/12/18 06:29:27;;;;;;;14.87;6.30;;;6.20;92.60;;;;;;5031246;28;20390;-75
2020/12/18 06:31:53;;;;;;;13.77;6.93;;;6.30;93.30;;;;;;5031103;28;20902;-74
2020/12/18 06:34:26;;;;;;;10.95;5.70;;;6.30;93.30;;;;;;5030880;28;20704;-75
2020/12/18 06:36:53;;;;;;;14.25;6.50;;;6.40;91.80;;;;;;5030825;28;20485;-75
2020/12/18 06:39:19;;;;;;;12.05;6.15;;;6.40;91.50;;;;;;5029652;28;20383;-74
2020/12/18 06:41:45;;;;;;;16.20;5.80;;;6.40;90.70;;;;;;5030795;28;20880;-75
2020/12/18 06:44:40;;;;;;;8.43;6.15;;;6.40;90.80;;;;;;5030774;28;20403;-74
2020/12/18 06:47:14;;;;;;;143.35;86.07;;;6.50;89.80;;;;;;5030041;28;20460;-73
2020/12/18 06:49:58;;;;;;;44.08;22.67;;;6.60;91.90;;;;;;5029965;28;20404;-74
2020/12/18 06:52:41;;;;;;;15.90;8.50;;;6.70;90.30;;;;;;5030639;28;20391;-74
2020/12/18 06:55:09;;;;;;;32.88;17.63;;;6.70;88.90;;;;;;5031098;28;20403;-75
2020/12/18 06:57:35;;;;;;;16.33;7.70;;;6.70;88.80;;;;;;5030984;28;20383;-75
2020/12/18 07:00:23;;;;;;;26.35;14.93;;;6.70;87.80;;;;;;5030893;28;20382;-75
2020/12/18 07:02:49;;;;;;;15.98;8.25;;;6.70;87.10;;;;;;5020449;28;20710;-75
2020/12/18 07:05:34;;;;;;;24.10;12.47;;;6.70;87.00;;;;;;5031308;28;20391;-75
2020/12/18 07:08:10;;;;;;;19.45;10.30;;;6.70;88.00;;;;;;5030639;28;20479;-73
2020/12/18 07:10:39;;;;;;;23.88;12.05;;;6.70;87.10;;;;;;5032753;28;20925;-74
2020/12/18 07:13:06;;;;;;;31.92;13.65;;;6.80;87.50;;;;;;5032216;28;20474;-74
2020/12/18 07:15:43;;;;;;;15.40;8.57;;;6.80;86.60;;;;;;5031308;28;20415;-75
2020/12/18 07:18:25;;;;;;;16.88;9.27;;;6.80;86.10;;;;;;5046775;28;20464;-74
2020/12/18 07:20:54;;;;;;;11.45;6.47;;;6.80;86.00;;;;;;5048824;28;20393;-74
2020/12/18 07:23:21;;;;;;;60.75;34.80;;;6.80;85.80;;;;;;5033680;28;20443;-76
2020/12/18 07:25:47;;;;;;;38.75;22.38;;;6.70;87.70;;;;;;5053565;28;20405;-74
2020/12/18 07:28:13;;;;;;;17.40;9.57;;;6.90;87.00;;;;;;5054576;28;20404;-73
2020/12/18 07:30:41;;;;;;;25.83;14.47;;;6.80;86.20;;;;;;5051327;28;20409;-74
2020/12/18 07:33:08;;;;;;;24.55;13.40;;;6.80;86.30;;;;;;5049583;28;20746;-74
2020/12/18 07:35:45;;;;;;;19.80;9.43;;;6.90;86.30;;;;;;5047095;28;20476;-74
2020/12/18 07:38:14;;;;;;;17.40;6.22;;;6.90;85.90;;;;;;5049061;28;20404;-74
2020/12/18 07:40:40;;;;;;;12.75;6.13;;;6.80;84.80;;;;;;5049438;28;20766;-74
2020/12/18 07:43:14;;;;;;;9.98;5.60;;;6.70;85.20;;;;;;5049178;28;20487;-73
2020/12/18 07:45:52;;;;;;;9.98;5.65;;;6.70;86.20;;;;;;5048145;28;20484;-73
2020/12/18 07:48:37;;;;;;;13.00;5.72;;;6.80;85.00;;;;;;5048183;28;20405;-74
2020/12/18 07:51:09;;;;;;;9.43;5.57;;;6.70;86.10;;;;;;5028210;28;20385;-73
2020/12/18 07:53:42;;;;;;;15.68;6.13;;;6.70;86.30;;;;;;5052875;28;20397;-72
2020/12/18 07:56:16;;;;;;;14.70;6.10;;;6.70;86.10;;;;;;5053403;28;20385;-73
2020/12/18 07:59:07;;;;;;;17.50;6.03;;;6.70;85.90;;;;;;5056535;28;20412;-74
2020/12/18 08:01:34;;;;;;;12.68;5.70;;;6.80;86.00;;;;;;5056644;28;20389;-74
2020/12/18 08:04:11;;;;;;;10.18;6.15;;;6.90;85.70;;;;;;5054775;28;20385;-74
2020/12/18 08:06:38;;;;;;;10.18;5.80;;;6.90;84.80;;;;;;5052306;28;20416;-73
2020/12/18 08:09:09;;;;;;;12.73;7.10;;;6.90;84.80;;;;;;5034521;28;20409;-74
2020/12/18 08:11:37;;;;;;;11.67;5.07;;;7.00;84.50;;;;;;5050423;28;20462;-74
2020/12/18 08:14:05;;;;;;;18.13;5.30;;;7.00;84.40;;;;;;5052990;28;20890;-74
2020/12/18 08:16:33;;;;;;;14.40;5.97;;;7.10;83.70;;;;;;5051772;28;20401;-74
2020/12/18 08:19:01;;;;;;;10.32;4.85;;;7.20;82.20;;;;;;5051406;28;20440;-73
2020/12/18 08:21:35;;;;;;;13.77;5.82;;;7.20;82.20;;;;;;5053463;28;20458;-75
2020/12/18 08:24:13;;;;;;;12.15;5.60;;;7.30;82.70;;;;;;5052360;28;20870;-72
2020/12/18 08:27:10;;;;;;;10.13;6.40;;;7.30;81.30;;;;;;5051648;28;20413;-73
2020/12/18 08:29:39;;;;;;;14.70;5.63;;;7.40;81.20;;;;;;5049228;28;20687;-73
2020/12/18 08:32:06;;;;;;;9.57;5.28;;;7.40;81.40;;;;;;5052405;28;20402;-74
2020/12/18 08:34:33;;;;;;;14.25;5.53;;;7.50;80.00;;;;;;5051561;28;20868;-74
2020/12/18 08:37:00;;;;;;;15.17;5.77;;;7.50;79.60;;;;;;5052802;28;20878;-73
2020/12/18 08:39:30;;;;;;;9.13;5.13;;;7.60;79.90;;;;;;5052795;28;20687;-73
2020/12/18 08:41:56;;;;;;;15.65;5.78;;;7.70;78.30;;;;;;5052980;28;20382;-74
2020/12/18 08:44:28;;;;;;;9.10;4.80;;;7.80;76.70;;;;;;5051144;28;20423;-73
2020/12/18 08:46:54;;;;;;;10.90;5.22;;;7.80;76.50;;;;;;5051612;28;20895;-71
2020/12/18 08:49:25;;;;;;;11.55;5.30;;;7.80;76.60;;;;;;5052197;28;20761;-74
2020/12/18 08:51:53;;;;;;;8.15;5.03;;;7.90;75.60;;;;;;5052137;28;20792;-73
2020/12/18 08:54:27;;;;;;;9.30;5.20;;;7.80;76.50;;;;;;5051025;28;20439;-74
2020/12/18 08:57:15;;;;;;;8.02;4.90;;;7.90;77.00;;;;;;5053448;28;20421;-73
2020/12/18 09:00:03;;;;;;;10.53;5.03;;;8.00;76.00;;;;;;5052206;28;20885;-75
2020/12/18 09:02:29;;;;;;;8.40;4.85;;;8.20;74.80;;;;;;5049974;28;20409;-74
2020/12/18 09:05:21;;;;;;;12.45;5.30;;;8.70;70.40;;;;;;5051676;28;20804;-74
2020/12/18 09:07:49;;;;;;;8.88;5.35;;;9.10;65.50;;;;;;5051559;28;20934;-74
2020/12/18 09:10:26;;;;;;;16.83;6.00;;;9.10;63.30;;;;;;5049827;28;20402;-73
2020/12/18 09:12:51;;;;;;;10.55;5.70;;;8.90;64.90;;;;;;5050550;28;20448;-74
2020/12/18 09:15:26;;;;;;;10.93;5.67;;;8.60;67.70;;;;;;5051735;28;20405;-75
2020/12/18 09:18:06;;;;;;;10.25;5.35;;;8.40;70.10;;;;;;5050778;28;20438;-75
2020/12/18 09:20:37;;;;;;;13.45;6.18;;;8.30;72.10;;;;;;5051570;28;20422;-74
2020/12/18 09:23:10;;;;;;;11.70;6.05;;;8.30;72.40;;;;;;5047423;28;20881;-73
2020/12/18 09:25:38;;;;;;;9.20;5.27;;;8.40;71.60;;;;;;5049959;28;20472;-74
2020/12/18 09:28:04;;;;;;;12.45;5.82;;;8.50;70.60;;;;;;5050608;28;20817;-75
2020/12/18 09:30:31;;;;;;;11.95;6.07;;;8.50;69.90;;;;;;5051831;28;20389;-74
2020/12/18 09:33:07;;;;;;;12.38;5.55;;;8.50;71.10;;;;;;5050878;28;20401;-74
2020/12/18 09:35:33;;;;;;;12.70;6.10;;;8.50;71.30;;;;;;5050571;28;20422;-74
2020/12/18 09:37:58;;;;;;;10.27;5.85;;;8.50;71.00;;;;;;5050056;28;20405;-74
2020/12/18 09:40:24;;;;;;;11.87;6.70;;;8.50;72.30;;;;;;5051815;28;20814;-75
2020/12/18 09:42:50;;;;;;;9.70;5.83;;;8.50;71.60;;;;;;5050430;28;20409;-75
2020/12/18 09:45:15;;;;;;;11.25;6.00;;;8.50;71.40;;;;;;5050325;28;20504;-75
2020/12/18 09:47:41;;;;;;;12.15;6.10;;;8.50;72.00;;;;;;5049656;28;20863;-73
2020/12/18 09:50:06;;;;;;;10.38;5.53;;;8.50;71.20;;;;;;5051006;28;20488;-75
2020/12/18 09:52:32;;;;;;;11.15;5.55;;;8.60;70.60;;;;;;5050817;28;20413;-74
2020/12/18 09:54:57;;;;;;;13.80;6.13;;;8.60;70.90;;;;;;5049208;28;20421;-74
2020/12/18 09:57:25;;;;;;;14.18;6.10;;;8.60;70.80;;;;;;5050889;28;20431;-73
2020/12/18 09:59:50;;;;;;;13.65;6.13;;;8.70;71.10;;;;;;5050054;28;20409;-74
2020/12/18 10:02:16;;;;;;;14.80;5.90;;;8.80;68.20;;;;;;5031788;28;20467;-73
2020/12/18 10:04:41;;;;;;;14.17;5.90;;;8.90;67.80;;;;;;5048785;28;20894;-74
2020/12/18 10:07:07;;;;;;;12.63;5.80;;;9.00;66.70;;;;;;5050206;28;20400;-74
2020/12/18 10:09:32;;;;;;;9.20;5.50;;;9.10;65.50;;;;;;5051131;28;20385;-73
2020/12/18 10:11:59;;;;;;;10.90;6.87;;;9.10;65.50;;;;;;5050683;28;20652;-74
2020/12/18 10:14:25;;;;;;;12.63;6.82;;;9.20;63.30;;;;;;5047822;28;20466;-73
2020/12/18 10:16:50;;;;;;;15.70;6.70;;;9.20;62.80;;;;;;5048885;28;20397;-73
2020/12/18 10:19:16;;;;;;;9.20;5.30;;;9.30;62.50;;;;;;5051027;28;20427;-73
2020/12/18 10:21:41;;;;;;;10.50;5.70;;;9.40;61.40;;;;;;5050426;28;20696;-73
2020/12/18 10:24:07;;;;;;;8.80;5.30;;;9.40;61.00;;;;;;5045115;28;20408;-73
2020/12/18 10:26:32;;;;;;;9.33;6.00;;;9.50;60.70;;;;;;5050337;28;20397;-73
2020/12/18 10:28:58;;;;;;;10.97;6.23;;;9.50;59.90;;;;;;5049695;28;20712;-73
2020/12/18 10:31:23;;;;;;;12.80;5.20;;;9.50;59.80;;;;;;5050213;28;20436;-74
2020/12/18 10:33:49;;;;;;;8.63;5.10;;;9.40;59.60;;;;;;5049951;28;20832;-74
2020/12/18 10:36:14;;;;;;;11.80;7.10;;;9.40;60.60;;;;;;5050281;28;20401;-74
2020/12/18 10:38:40;;;;;;;11.53;6.10;;;9.40;60.40;;;;;;5049629;28;20397;-74
2020/12/18 10:41:07;;;;;;;11.10;5.68;;;9.50;60.70;;;;;;5050284;28;20952;-75
2020/12/18 10:43:33;;;;;;;9.05;5.10;;;9.60;58.70;;;;;;5049323;28;20401;-73
2020/12/18 10:45:58;;;;;;;8.93;5.28;;;9.70;57.60;;;;;;5051073;28;20432;-73
2020/12/18 10:48:25;;;;;;;8.50;5.00;;;9.80;56.30;;;;;;5053622;28;20408;-74
2020/12/18 10:50:50;;;;;;;10.07;5.10;;;9.90;55.40;;;;;;5054173;28;20474;-75
2020/12/18 10:53:16;;;;;;;10.43;4.70;;;9.80;56.10;;;;;;5036069;28;20415;-74
2020/12/18 10:55:41;;;;;;;9.10;5.13;;;9.90;55.30;;;;;;5053649;28;20507;-75
2020/12/18 10:58:07;;;;;;;10.80;5.30;;;10.00;54.80;;;;;;5053209;28;20405;-74
2020/12/18 11:00:32;;;;;;;11.27;5.50;;;10.10;53.30;;;;;;5053611;28;20744;-74
2020/12/18 11:02:58;;;;;;;9.97;5.60;;;10.10;52.70;;;;;;5052440;28;20401;-75
2020/12/18 11:05:23;;;;;;;11.10;6.20;;;10.10;52.70;;;;;;5053322;28;20427;-74
2020/12/18 11:07:49;;;;;;;8.13;4.80;;;10.20;53.10;;;;;;5051585;28;20470;-76
2020/12/18 11:10:14;;;;;;;7.53;4.82;;;10.20;52.20;;;;;;5054077;28;20395;-74
2020/12/18 11:12:40;;;;;;;15.50;5.20;;;10.30;51.60;;;;;;5031522;28;20425;-75
2020/12/18 11:15:05;;;;;;;8.82;5.20;;;10.30;52.60;;;;;;5048733;28;20452;-74
2020/12/18 11:17:31;;;;;;;7.50;5.03;;;10.30;51.70;;;;;;5049600;28;20381;-74
2020/12/18 11:19:56;;;;;;;9.60;4.90;;;10.40;50.90;;;;;;5049037;28;20472;-74
2020/12/18 11:22:22;;;;;;;9.43;4.70;;;10.40;50.60;;;;;;5049582;28;20455;-74
2020/12/18 11:24:48;;;;;;;6.60;5.03;;;10.50;50.40;;;;;;5049078;28;20913;-73
2020/12/18 11:27:13;;;;;;;5.57;4.20;;;10.50;48.90;;;;;;5048991;28;20541;-75
2020/12/18 11:29:39;;;;;;;10.13;4.78;;;10.50;49.50;;;;;;5030808;28;20397;-74
2020/12/18 11:32:04;;;;;;;9.80;4.72;;;10.60;50.10;;;;;;5048759;28;20471;-74
2020/12/18 11:34:30;;;;;;;10.10;5.10;;;10.60;48.60;;;;;;5049242;28;20436;-74
2020/12/18 11:36:56;;;;;;;8.05;4.75;;;10.60;47.90;;;;;;5047804;28;20409;-75
2020/12/18 11:39:22;;;;;;;8.15;5.15;;;10.60;47.90;;;;;;5048825;28;20488;-73
2020/12/18 11:41:48;;;;;;;11.23;5.10;;;10.60;49.20;;;;;;5048539;28;20397;-74
2020/12/18 11:44:14;;;;;;;8.23;4.70;;;10.60;49.90;;;;;;5043758;28;20401;-73
2020/12/18 11:46:40;;;;;;;12.93;5.63;;;10.60;49.00;;;;;;5048417;28;20398;-73
2020/12/18 11:49:06;;;;;;;7.65;4.90;;;10.60;48.60;;;;;;5049762;28;20432;-73
2020/12/18 11:51:31;;;;;;;11.48;5.15;;;10.60;47.90;;;;;;5047332;28;20848;-74
2020/12/18 11:53:58;;;;;;;11.07;4.82;;;10.60;47.60;;;;;;5048649;28;20403;-74
2020/12/18 11:56:24;;;;;;;8.25;4.57;;;10.70;47.80;;;;;;5047271;28;20411;-74
2020/12/18 11:58:50;;;;;;;6.72;4.65;;;10.70;47.60;;;;;;5047788;28;20454;-73
2020/12/18 12:01:21;;;;;;;6.60;3.90;;;10.70;48.20;;;;;;5049257;28;20393;-72
2020/12/18 12:03:48;;;;;;;6.93;5.45;;;10.70;46.60;;;;;;5047968;28;20850;-72
2020/12/18 12:06:14;;;;;;;7.10;4.20;;;10.70;46.80;;;;;;5025110;28;20883;-71
2020/12/18 12:08:40;;;;;;;10.20;4.20;;;10.70;46.90;;;;;;5047319;28;20389;-74
2020/12/18 12:11:05;;;;;;;10.50;4.50;;;10.70;47.20;;;;;;5046851;28;20455;-74
2020/12/18 12:13:31;;;;;;;9.80;4.20;;;10.70;48.90;;;;;;5053909;28;20401;-75
2020/12/18 12:15:56;;;;;;;7.25;4.18;;;10.60;48.90;;;;;;5053135;28;20463;-75
2020/12/18 12:18:22;;;;;;;8.23;4.40;;;10.60;49.40;;;;;;5051052;28;20435;-74
2020/12/18 12:20:47;;;;;;;11.43;5.15;;;10.60;48.60;;;;;;5052144;28;20385;-74
2020/12/18 12:23:13;;;;;;;10.60;5.20;;;10.70;48.80;;;;;;5053058;28;20401;-74
2020/12/18 12:25:39;;;;;;;8.30;3.85;;;10.80;47.30;;;;;;5054489;28;20404;-73
2020/12/18 12:28:04;;;;;;;6.97;3.90;;;10.80;46.40;;;;;;5055041;28;20823;-73
2020/12/18 12:30:30;;;;;;;3.78;3.45;;;10.80;46.50;;;;;;5055387;28;20496;-74
2020/12/18 12:32:56;;;;;;;7.97;4.32;;;10.80;46.20;;;;;;5056153;28;20404;-75
2020/12/18 12:35:23;;;;;;;7.78;4.30;;;10.80;46.10;;;;;;5056042;28;20472;-73
2020/12/18 12:37:48;;;;;;;6.20;4.03;;;10.80;46.30;;;;;;5057679;28;20397;-76
2020/12/18 12:40:14;;;;;;;9.70;4.40;;;10.80;46.40;;;;;;5055244;28;20388;-73
2020/12/18 12:42:39;;;;;;;7.63;4.07;;;11.00;45.40;;;;;;5051667;28;20904;-73
2020/12/18 12:45:05;;;;;;;7.07;3.97;;;11.00;45.50;;;;;;5050600;28;20405;-74
2020/12/18 12:47:31;;;;;;;9.73;3.80;;;10.90;46.60;;;;;;5051701;28;20537;-75
2020/12/18 12:49:56;;;;;;;5.22;3.72;;;10.90;46.50;;;;;;5051715;28;20522;-73